Time;durP1;ratioP1;P1;durP2;ratioP2;P2;SDS_P1;SDS_P2;PMS_P1;PMS_P2;Temp;Humidity;BMP_temperature;BMP_pressure;BME280_temperature;BME280_humidity;BME280_pressure;Samples;Min_cycle;Max_cycle;Signal;HPM_P1;HPM_P2
2023/09/04 00:00:16;;;;;;;0.50;0.50;;;;;;;;;;1035324;28;20021;-74
2023/09/04 00:00:50;;;;;;;0.20;0.20;;;;;;;;;;1035595;28;20402;-73
2023/09/04 00:01:21;;;;;;;0.52;0.52;;;;;;;;;;1031543;28;20065;-73
2023/09/04 00:01:51;;;;;;;1.13;0.73;;;;;;;;;;1031317;28;20026;-73
2023/09/04 00:02:23;;;;;;;1.20;1.10;;;;;;;;;;1035657;28;20037;-73
2023/09/04 00:02:53;;;;;;;0.40;0.38;;;;;;;;;;1035259;28;20113;-73
2023/09/04 00:03:26;;;;;;;1.63;0.73;;;;;;;;;;1035715;28;20075;-73
2023/09/04 00:03:56;;;;;;;0.30;0.30;;;;;;;;;;1035602;28;20025;-73
2023/09/04 00:04:27;;;;;;;0.88;0.70;;;;;;;;;;1035892;28;20026;-73
2023/09/04 00:04:57;;;;;;;0.17;0.17;;;;;;;;;;1038597;28;20024;-74
2023/09/04 00:05:28;;;;;;;0.47;0.38;;;;;;;;;;1038629;28;20433;-74
2023/09/04 00:05:58;;;;;;;0.98;0.93;;;;;;;;;;1039619;28;20017;-74
2023/09/04 00:06:29;;;;;;;0.80;0.80;;;;;;;;;;1037554;28;20044;-73
2023/09/04 00:06:59;;;;;;;0.93;0.93;;;;;;;;;;1038117;28;20027;-74
2023/09/04 00:07:30;;;;;;;3.63;2.60;;;;;;;;;;1037424;28;20651;-74
2023/09/04 00:08:01;;;;;;;0.17;0.17;;;;;;;;;;1036685;28;20013;-73
2023/09/04 00:08:31;;;;;;;2.95;1.65;;;;;;;;;;1039793;28;20017;-73
2023/09/04 00:09:02;;;;;;;0.35;0.35;;;;;;;;;;1039601;28;20104;-73
2023/09/04 00:09:32;;;;;;;0.00;0.00;;;;;;;;;;1039670;28;20075;-73
2023/09/04 00:10:03;;;;;;;0.10;0.10;;;;;;;;;;1035312;28;20516;-74
2023/09/04 00:10:34;;;;;;;1.55;0.88;;;;;;;;;;1035570;28;20044;-74
2023/09/04 00:11:04;;;;;;;0.95;0.77;;;;;;;;;;1035533;28;20030;-74
2023/09/04 00:11:35;;;;;;;1.13;1.02;;;;;;;;;;1031687;28;20026;-74
2023/09/04 00:12:05;;;;;;;0.93;0.90;;;;;;;;;;1029320;28;20022;-74
2023/09/04 00:12:36;;;;;;;0.00;0.00;;;;;;;;;;1029333;28;20081;-74
2023/09/04 00:13:06;;;;;;;1.35;1.25;;;;;;;;;;1030779;28;20023;-73
2023/09/04 00:13:37;;;;;;;0.32;0.32;;;;;;;;;;1033554;28;20403;-73
2023/09/04 00:14:07;;;;;;;2.53;2.17;;;;;;;;;;1039147;28;20537;-74
2023/09/04 00:14:38;;;;;;;0.25;0.25;;;;;;;;;;1039211;28;20009;-73
2023/09/04 00:15:08;;;;;;;1.23;1.13;;;;;;;;;;1038090;28;20040;-74
2023/09/04 00:15:39;;;;;;;3.30;1.85;;;;;;;;;;1039173;28;20044;-74
2023/09/04 00:16:09;;;;;;;0.47;0.47;;;;;;;;;;1035182;28;20017;-73
2023/09/04 00:16:41;;;;;;;1.02;0.93;;;;;;;;;;1035939;28;20021;-73
2023/09/04 00:17:12;;;;;;;1.35;1.00;;;;;;;;;;1035537;28;20058;-73
2023/09/04 00:17:42;;;;;;;0.28;0.28;;;;;;;;;;1039263;28;20056;-73
2023/09/04 00:18:13;;;;;;;0.00;0.00;;;;;;;;;;1039656;28;20021;-73
2023/09/04 00:18:44;;;;;;;1.65;1.42;;;;;;;;;;1038480;28;20027;-73
2023/09/04 00:19:14;;;;;;;0.50;0.50;;;;;;;;;;1039490;28;20024;-73
2023/09/04 00:19:45;;;;;;;1.67;1.58;;;;;;;;;;1039556;28;20056;-73
2023/09/04 00:20:15;;;;;;;0.00;0.00;;;;;;;;;;1035935;28;20029;-73
2023/09/04 00:20:46;;;;;;;0.30;0.30;;;;;;;;;;1035658;28;20010;-73
2023/09/04 00:21:16;;;;;;;0.88;0.65;;;;;;;;;;1035821;28;20037;-73
2023/09/04 00:21:47;;;;;;;0.03;0.03;;;;;;;;;;1035817;28;20014;-73
2023/09/04 00:22:17;;;;;;;0.13;0.13;;;;;;;;;;1035595;28;20465;-74
2023/09/04 00:22:48;;;;;;;1.55;1.10;;;;;;;;;;1035702;28;20030;-74
2023/09/04 00:23:18;;;;;;;0.40;0.40;;;;;;;;;;1035311;28;20116;-74
2023/09/04 00:23:48;;;;;;;1.05;0.98;;;;;;;;;;1035899;28;20024;-74
2023/09/04 00:24:21;;;;;;;0.30;0.30;;;;;;;;;;1035798;28;20036;-73
2023/09/04 00:24:52;;;;;;;0.28;0.28;;;;;;;;;;1035868;28;20022;-73
2023/09/04 00:25:22;;;;;;;1.27;1.25;;;;;;;;;;1035809;28;20022;-74
2023/09/04 00:25:54;;;;;;;1.38;1.27;;;;;;;;;;1039415;28;20021;-74
2023/09/04 00:26:24;;;;;;;12.18;1.67;;;;;;;;;;1039626;28;20072;-74
2023/09/04 00:26:55;;;;;;;1.25;0.52;;;;;;;;;;1039612;28;20028;-73
2023/09/04 00:27:26;;;;;;;0.10;0.10;;;;;;;;;;1039055;28;20024;-73
2023/09/04 00:27:57;;;;;;;0.30;0.25;;;;;;;;;;1035699;28;20144;-73
2023/09/04 00:28:28;;;;;;;3.33;1.00;;;;;;;;;;1039567;28;20509;-73
2023/09/04 00:28:58;;;;;;;0.93;0.65;;;;;;;;;;1033667;28;20021;-73
2023/09/04 00:29:29;;;;;;;0.47;0.47;;;;;;;;;;1033491;28;20029;-74
2023/09/04 00:29:59;;;;;;;3.30;1.90;;;;;;;;;;1033527;28;20080;-73
2023/09/04 00:30:30;;;;;;;1.52;1.42;;;;;;;;;;1033519;28;20666;-73
2023/09/04 00:31:00;;;;;;;1.25;0.75;;;;;;;;;;1037380;28;20020;-73
2023/09/04 00:31:31;;;;;;;1.45;0.55;;;;;;;;;;1037689;28;20029;-73
2023/09/04 00:32:02;;;;;;;0.15;0.15;;;;;;;;;;1037373;28;20514;-73
2023/09/04 00:32:33;;;;;;;2.97;1.33;;;;;;;;;;1037525;28;20033;-73
2023/09/04 00:33:04;;;;;;;1.67;1.08;;;;;;;;;;1035732;28;20018;-73
2023/09/04 00:33:34;;;;;;;0.20;0.20;;;;;;;;;;1035757;28;20022;-73
2023/09/04 00:34:05;;;;;;;0.65;0.63;;;;;;;;;;1039410;28;20488;-73
2023/09/04 00:34:35;;;;;;;0.32;0.32;;;;;;;;;;1039619;28;20051;-73
2023/09/04 00:35:06;;;;;;;0.38;0.38;;;;;;;;;;1039507;28;20031;-73
2023/09/04 00:35:36;;;;;;;2.15;1.10;;;;;;;;;;1039434;28;20020;-73
2023/09/04 00:36:07;;;;;;;0.85;0.75;;;;;;;;;;1035715;28;20030;-73
2023/09/04 00:36:37;;;;;;;0.43;0.32;;;;;;;;;;1039501;28;20040;-73
2023/09/04 00:37:09;;;;;;;1.10;1.10;;;;;;;;;;1039258;28;20048;-73
2023/09/04 00:37:43;;;;;;;1.45;0.55;;;;;;;;;;1039120;28;20105;-74
2023/09/04 00:38:13;;;;;;;0.17;0.17;;;;;;;;;;1039057;28;20083;-75
2023/09/04 00:38:44;;;;;;;0.88;0.85;;;;;;;;;;1038828;28;20104;-74
2023/09/04 00:39:14;;;;;;;0.70;0.52;;;;;;;;;;1035678;28;20029;-74
2023/09/04 00:39:45;;;;;;;0.40;0.40;;;;;;;;;;1035736;28;20009;-74
2023/09/04 00:40:15;;;;;;;6.60;1.48;;;;;;;;;;1038459;28;20456;-73
2023/09/04 00:40:46;;;;;;;0.30;0.30;;;;;;;;;;1038342;28;20497;-74
2023/09/04 00:41:18;;;;;;;1.48;0.73;;;;;;;;;;1039611;28;20033;-74
2023/09/04 00:41:49;;;;;;;2.42;0.68;;;;;;;;;;1039407;28;20032;-74
2023/09/04 00:42:19;;;;;;;0.30;0.30;;;;;;;;;;1039454;28;20021;-74
2023/09/04 00:42:50;;;;;;;1.45;0.93;;;;;;;;;;1039518;28;20132;-74
2023/09/04 00:43:20;;;;;;;2.30;1.08;;;;;;;;;;1039052;28;20111;-73
2023/09/04 00:43:51;;;;;;;0.65;0.65;;;;;;;;;;1035626;28;20049;-74
2023/09/04 00:44:21;;;;;;;0.30;0.30;;;;;;;;;;1035744;28;20056;-74
2023/09/04 00:44:52;;;;;;;2.45;2.25;;;;;;;;;;1035850;28;20109;-73
2023/09/04 00:45:22;;;;;;;0.20;0.20;;;;;;;;;;1035798;28;20022;-74
2023/09/04 00:45:53;;;;;;;4.57;0.47;;;;;;;;;;1035731;28;20018;-75
2023/09/04 00:46:23;;;;;;;0.73;0.73;;;;;;;;;;1035830;28;20017;-74
2023/09/04 00:46:54;;;;;;;1.17;0.95;;;;;;;;;;1039356;28;20017;-74
2023/09/04 00:47:25;;;;;;;4.47;2.05;;;;;;;;;;1039385;28;20061;-74
2023/09/04 00:47:55;;;;;;;0.93;0.93;;;;;;;;;;1039406;28;20017;-74
2023/09/04 00:48:26;;;;;;;1.55;0.45;;;;;;;;;;1039417;28;20040;-74
2023/09/04 00:48:56;;;;;;;0.82;0.82;;;;;;;;;;1031390;28;20022;-75
2023/09/04 00:49:29;;;;;;;0.20;0.20;;;;;;;;;;1031319;28;20501;-73
2023/09/04 00:50:00;;;;;;;0.47;0.47;;;;;;;;;;1035443;28;20057;-75
2023/09/04 00:50:32;;;;;;;5.30;2.75;;;;;;;;;;1034776;28;20022;-74
2023/09/04 00:51:02;;;;;;;0.13;0.13;;;;;;;;;;1035348;28;20018;-74
2023/09/04 00:51:33;;;;;;;0.75;0.75;;;;;;;;;;1035797;28;20028;-74
2023/09/04 00:52:05;;;;;;;1.15;1.05;;;;;;;;;;1035608;28;20053;-74
2023/09/04 00:52:35;;;;;;;2.22;0.28;;;;;;;;;;1039254;28;20021;-74
2023/09/04 00:53:06;;;;;;;1.20;0.85;;;;;;;;;;1038763;28;20029;-74
2023/09/04 00:53:37;;;;;;;1.88;1.77;;;;;;;;;;1039188;28;20025;-74
2023/09/04 00:54:08;;;;;;;1.30;0.70;;;;;;;;;;1039019;28;20029;-75
2023/09/04 00:54:41;;;;;;;1.45;1.35;;;;;;;;;;1035416;28;20025;-74
2023/09/04 00:55:12;;;;;;;2.97;1.70;;;;;;;;;;1035215;28;20026;-74
2023/09/04 00:55:43;;;;;;;1.27;1.17;;;;;;;;;;1035652;28;20059;-74
2023/09/04 00:56:14;;;;;;;0.52;0.52;;;;;;;;;;1035682;28;20116;-74
2023/09/04 00:56:47;;;;;;;1.88;0.98;;;;;;;;;;1035414;28;20088;-74
2023/09/04 00:57:18;;;;;;;1.17;1.08;;;;;;;;;;1034611;28;20037;-74
2023/09/04 00:57:48;;;;;;;11.25;2.78;;;;;;;;;;1035563;28;20738;-74
2023/09/04 00:58:19;;;;;;;0.28;0.28;;;;;;;;;;1033177;28;20014;-74
2023/09/04 00:58:49;;;;;;;0.85;0.63;;;;;;;;;;1031921;28;20076;-74
2023/09/04 00:59:20;;;;;;;2.67;1.65;;;;;;;;;;1032469;28;20049;-74
2023/09/04 00:59:51;;;;;;;2.42;0.93;;;;;;;;;;1033197;28;20560;-75
2023/09/04 01:00:27;;;;;;;0.70;0.57;;;;;;;;;;1040701;28;20017;-74
2023/09/04 01:00:59;;;;;;;1.23;1.15;;;;;;;;;;1040404;28;20103;-74
2023/09/04 01:01:30;;;;;;;4.22;2.03;;;;;;;;;;1041056;28;20513;-74
2023/09/04 01:02:01;;;;;;;0.80;0.80;;;;;;;;;;1040287;28;20029;-74
2023/09/04 01:02:32;;;;;;;0.98;0.82;;;;;;;;;;1036236;28;20515;-74
2023/09/04 01:03:03;;;;;;;0.10;0.10;;;;;;;;;;1036416;28;20029;-74
2023/09/04 01:03:34;;;;;;;1.85;1.08;;;;;;;;;;1035778;28;20013;-74
2023/09/04 01:04:04;;;;;;;0.60;0.60;;;;;;;;;;1035437;28;20030;-74
2023/09/04 01:04:35;;;;;;;0.00;0.00;;;;;;;;;;1035569;28;20096;-74
2023/09/04 01:05:06;;;;;;;0.00;0.00;;;;;;;;;;1033913;28;20032;-74
2023/09/04 01:05:36;;;;;;;1.35;0.63;;;;;;;;;;1034945;28;21179;-73
2023/09/04 01:06:07;;;;;;;0.43;0.43;;;;;;;;;;1035140;28;20375;-75
2023/09/04 01:06:38;;;;;;;1.52;0.55;;;;;;;;;;1034873;28;20362;-74
2023/09/04 01:07:08;;;;;;;1.58;1.25;;;;;;;;;;1034962;28;20390;-74
2023/09/04 01:07:40;;;;;;;0.80;0.80;;;;;;;;;;1035148;28;20525;-74
2023/09/04 01:08:12;;;;;;;0.70;0.60;;;;;;;;;;1034827;28;20052;-74
2023/09/04 01:08:43;;;;;;;0.90;0.90;;;;;;;;;;1035168;28;20033;-74
2023/09/04 01:09:13;;;;;;;0.30;0.30;;;;;;;;;;1035341;28;20022;-74
2023/09/04 01:09:44;;;;;;;1.05;1.05;;;;;;;;;;1035409;28;20026;-74
2023/09/04 01:10:15;;;;;;;2.67;0.95;;;;;;;;;;1035243;28;20025;-74
2023/09/04 01:10:45;;;;;;;0.25;0.25;;;;;;;;;;1034891;28;20104;-74
2023/09/04 01:11:19;;;;;;;0.30;0.30;;;;;;;;;;1034800;28;20420;-74
2023/09/04 01:11:59;;;;;;;0.20;0.20;;;;;;;;;;1033952;28;20045;-75
2023/09/04 01:12:33;;;;;;;0.57;0.57;;;;;;;;;;1035358;28;20034;-74
2023/09/04 01:13:07;;;;;;;2.83;0.32;;;;;;;;;;1033424;28;20551;-74
2023/09/04 01:13:40;;;;;;;14.85;2.28;;;;;;;;;;1033017;28;20026;-74
2023/09/04 01:14:16;;;;;;;0.00;0.00;;;;;;;;;;1032701;28;20121;-73
2023/09/04 01:14:47;;;;;;;0.10;0.10;;;;;;;;;;1032729;28;20104;-73
2023/09/04 01:15:17;;;;;;;2.78;1.50;;;;;;;;;;1038803;28;21258;-74
2023/09/04 01:15:48;;;;;;;6.57;1.38;;;;;;;;;;1037806;28;20033;-74
2023/09/04 01:16:19;;;;;;;3.78;2.33;;;;;;;;;;1038370;28;20029;-74
2023/09/04 01:16:50;;;;;;;0.20;0.20;;;;;;;;;;1036387;28;20025;-74
2023/09/04 01:17:21;;;;;;;1.55;0.75;;;;;;;;;;1037020;28;20090;-74
2023/09/04 01:17:52;;;;;;;0.65;0.65;;;;;;;;;;1037496;28;20034;-74
2023/09/04 01:18:23;;;;;;;0.40;0.40;;;;;;;;;;1038432;28;20513;-74
2023/09/04 01:18:53;;;;;;;0.40;0.40;;;;;;;;;;1037915;28;20029;-74
2023/09/04 01:19:24;;;;;;;0.45;0.45;;;;;;;;;;1034172;28;20049;-74
2023/09/04 01:19:55;;;;;;;2.13;0.43;;;;;;;;;;1034755;28;20512;-74
2023/09/04 01:20:29;;;;;;;0.20;0.20;;;;;;;;;;1034832;28;20037;-75
2023/09/04 01:21:00;;;;;;;0.80;0.80;;;;;;;;;;1033462;28;20576;-73
2023/09/04 01:21:34;;;;;;;1.38;1.27;;;;;;;;;;1034338;28;20060;-74
2023/09/04 01:22:05;;;;;;;0.20;0.20;;;;;;;;;;1034239;28;20029;-74
2023/09/04 01:22:36;;;;;;;1.17;0.80;;;;;;;;;;1034976;28;20100;-74
2023/09/04 01:23:08;;;;;;;0.90;0.82;;;;;;;;;;1037221;28;20109;-74
2023/09/04 01:23:38;;;;;;;3.30;1.20;;;;;;;;;;1037531;28;20125;-74
2023/09/04 01:24:09;;;;;;;0.10;0.10;;;;;;;;;;1038393;28;20104;-74
2023/09/04 01:24:39;;;;;;;0.75;0.57;;;;;;;;;;1038323;28;20081;-74
2023/09/04 01:25:10;;;;;;;10.27;1.80;;;;;;;;;;1033815;28;20549;-74
2023/09/04 01:25:43;;;;;;;0.45;0.45;;;;;;;;;;1034538;28;20437;-75
2023/09/04 01:26:19;;;;;;;0.25;0.25;;;;;;;;;;1034137;28;20490;-74
2023/09/04 01:26:55;;;;;;;0.77;0.70;;;;;;;;;;1034448;28;20833;-73
2023/09/04 01:27:27;;;;;;;0.25;0.25;;;;;;;;;;1033247;28;20088;-74
2023/09/04 01:28:01;;;;;;;1.17;1.10;;;;;;;;;;1034627;28;20026;-74
2023/09/04 01:28:40;;;;;;;0.75;0.50;;;;;;;;;;1034743;28;20021;-74
2023/09/04 01:29:16;;;;;;;0.68;0.10;;;;;;;;;;1038073;28;20675;-75
2023/09/04 01:29:46;;;;;;;1.98;1.85;;;;;;;;;;1038833;28;20075;-75
2023/09/04 01:30:20;;;;;;;2.63;0.40;;;;;;;;;;1038872;28;20021;-73
2023/09/04 01:31:11;;;;;;;0.55;0.28;;;;;;;;;;1035487;28;20064;-74
2023/09/04 01:31:48;;;;;;;0.22;0.22;;;;;;;;;;1032062;28;20533;-75
2023/09/04 01:32:26;;;;;;;0.40;0.35;;;;;;;;;;1034622;28;20428;-74
2023/09/04 01:33:00;;;;;;;0.88;0.85;;;;;;;;;;1034560;28;20402;-74
2023/09/04 01:33:33;;;;;;;6.03;2.00;;;;;;;;;;1034666;28;20033;-74
2023/09/04 01:34:10;;;;;;;0.50;0.50;;;;;;;;;;1034864;28;20029;-73
2023/09/04 01:34:42;;;;;;;0.38;0.30;;;;;;;;;;1034655;28;20146;-74
2023/09/04 01:35:14;;;;;;;0.47;0.40;;;;;;;;;;1034130;28;20113;-75
2023/09/04 01:35:45;;;;;;;0.75;0.75;;;;;;;;;;1034871;28;20026;-74
2023/09/04 01:36:19;;;;;;;2.67;0.63;;;;;;;;;;1038204;28;20546;-74
2023/09/04 01:36:51;;;;;;;4.50;2.35;;;;;;;;;;1036001;28;20029;-74
2023/09/04 01:37:22;;;;;;;0.20;0.20;;;;;;;;;;1036732;28;20037;-74
2023/09/04 01:37:54;;;;;;;1.65;0.73;;;;;;;;;;1037045;28;20036;-74
2023/09/04 01:38:24;;;;;;;0.93;0.68;;;;;;;;;;1032180;28;20029;-74
2023/09/04 01:38:55;;;;;;;4.22;1.92;;;;;;;;;;1033199;28;20096;-74
2023/09/04 01:39:25;;;;;;;0.60;0.60;;;;;;;;;;1033531;28;20030;-73
2023/09/04 01:39:56;;;;;;;0.55;0.55;;;;;;;;;;1035455;28;20018;-74
2023/09/04 01:40:27;;;;;;;0.10;0.10;;;;;;;;;;1034232;28;20047;-75
2023/09/04 01:40:58;;;;;;;0.10;0.10;;;;;;;;;;1033207;28;20036;-74
2023/09/04 01:41:28;;;;;;;1.33;1.08;;;;;;;;;;1034180;28;20041;-73
2023/09/04 01:42:00;;;;;;;4.03;1.42;;;;;;;;;;1034515;28;20153;-73
2023/09/04 01:42:30;;;;;;;0.17;0.17;;;;;;;;;;1033665;28;20026;-74
2023/09/04 01:43:01;;;;;;;0.20;0.20;;;;;;;;;;1033764;28;20485;-74
2023/09/04 01:43:32;;;;;;;0.32;0.30;;;;;;;;;;1031751;28;20034;-74
2023/09/04 01:44:02;;;;;;;0.75;0.47;;;;;;;;;;1031918;28;20025;-74
2023/09/04 01:44:33;;;;;;;0.15;0.15;;;;;;;;;;1032217;28;20061;-74
2023/09/04 01:45:03;;;;;;;3.40;1.88;;;;;;;;;;1029919;28;20034;-74
2023/09/04 01:45:34;;;;;;;0.63;0.55;;;;;;;;;;1028734;28;20020;-74
2023/09/04 01:46:04;;;;;;;0.00;0.00;;;;;;;;;;1029754;28;20149;-74
2023/09/04 01:46:35;;;;;;;0.30;0.10;;;;;;;;;;1029716;28;20027;-75
2023/09/04 01:47:05;;;;;;;4.68;2.55;;;;;;;;;;1029702;28;20034;-75
2023/09/04 01:47:36;;;;;;;3.80;0.70;;;;;;;;;;1034320;28;20120;-75
2023/09/04 01:48:06;;;;;;;1.75;1.65;;;;;;;;;;1034888;28;20033;-74
2023/09/04 01:48:38;;;;;;;0.00;0.00;;;;;;;;;;1034295;28;20045;-74
2023/09/04 01:49:08;;;;;;;1.20;0.80;;;;;;;;;;1034402;28;20398;-74
2023/09/04 01:49:39;;;;;;;0.28;0.28;;;;;;;;;;1034724;28;20101;-74
2023/09/04 01:50:09;;;;;;;1.55;1.20;;;;;;;;;;1032457;28;20029;-73
2023/09/04 01:50:40;;;;;;;0.30;0.30;;;;;;;;;;1034480;28;20745;-73
2023/09/04 01:51:10;;;;;;;0.00;0.00;;;;;;;;;;1033771;28;20018;-74
2023/09/04 01:51:41;;;;;;;1.15;1.00;;;;;;;;;;1034219;28;20022;-74
2023/09/04 01:52:11;;;;;;;3.08;1.27;;;;;;;;;;1033707;28;20036;-73
2023/09/04 01:52:42;;;;;;;0.17;0.17;;;;;;;;;;1034729;28;20049;-74
2023/09/04 01:53:12;;;;;;;0.00;0.00;;;;;;;;;;1033056;28;20025;-73
2023/09/04 01:53:43;;;;;;;0.00;0.00;;;;;;;;;;1034790;28;20468;-74
2023/09/04 01:54:13;;;;;;;0.73;0.68;;;;;;;;;;1034009;28;20030;-72
2023/09/04 01:54:43;;;;;;;0.13;0.13;;;;;;;;;;1034822;28;20026;-74
2023/09/04 01:55:14;;;;;;;0.20;0.20;;;;;;;;;;1032532;28;20141;-73
2023/09/04 01:55:44;;;;;;;1.02;0.45;;;;;;;;;;1032722;28;20018;-74
2023/09/04 01:56:15;;;;;;;0.20;0.20;;;;;;;;;;1032171;28;20745;-73
2023/09/04 01:56:45;;;;;;;0.47;0.32;;;;;;;;;;1032721;28;20488;-74
2023/09/04 01:57:16;;;;;;;0.20;0.20;;;;;;;;;;1034000;28;20029;-74
2023/09/04 01:57:46;;;;;;;0.57;0.57;;;;;;;;;;1034490;28;20056;-74
2023/09/04 01:58:17;;;;;;;2.63;1.95;;;;;;;;;;1033884;28;20045;-74
2023/09/04 01:58:48;;;;;;;0.10;0.10;;;;;;;;;;1033002;28;20018;-74
2023/09/04 01:59:18;;;;;;;0.20;0.20;;;;;;;;;;1032579;28;20402;-74
2023/09/04 01:59:48;;;;;;;1.98;1.52;;;;;;;;;;1032804;28;20386;-75
2023/09/04 02:00:19;;;;;;;0.45;0.45;;;;;;;;;;1033934;28;20034;-74
2023/09/04 02:00:49;;;;;;;0.08;0.05;;;;;;;;;;1034483;28;20037;-73
2023/09/04 02:01:20;;;;;;;0.15;0.15;;;;;;;;;;1033462;28;20022;-75
2023/09/04 02:01:50;;;;;;;2.78;2.17;;;;;;;;;;1032615;28;20112;-74
2023/09/04 02:02:21;;;;;;;1.00;0.70;;;;;;;;;;1033322;28;20550;-73
2023/09/04 02:02:51;;;;;;;0.03;0.03;;;;;;;;;;1033283;28;20486;-73
2023/09/04 02:03:22;;;;;;;0.00;0.00;;;;;;;;;;1032736;28;20501;-74
2023/09/04 02:03:54;;;;;;;0.10;0.10;;;;;;;;;;1033397;28;20034;-74
2023/09/04 02:04:24;;;;;;;0.80;0.63;;;;;;;;;;1033273;28;20034;-74
2023/09/04 02:04:55;;;;;;;0.10;0.10;;;;;;;;;;1033864;28;20022;-75
2023/09/04 02:05:26;;;;;;;0.10;0.10;;;;;;;;;;1030868;28;20125;-73
2023/09/04 02:05:56;;;;;;;0.47;0.47;;;;;;;;;;1036099;28;20611;-74
2023/09/04 02:06:28;;;;;;;0.00;0.00;;;;;;;;;;1033129;28;20515;-73
2023/09/04 02:06:58;;;;;;;0.82;0.77;;;;;;;;;;1033417;28;20076;-75
2023/09/04 02:07:29;;;;;;;2.50;1.20;;;;;;;;;;1036119;28;20493;-74
2023/09/04 02:07:59;;;;;;;0.73;0.38;;;;;;;;;;1029202;28;20030;-73
2023/09/04 02:08:30;;;;;;;0.73;0.57;;;;;;;;;;1032703;28;20607;-74
2023/09/04 02:09:00;;;;;;;5.65;1.02;;;;;;;;;;1033081;28;20109;-75
2023/09/04 02:09:31;;;;;;;3.95;1.75;;;;;;;;;;1034040;28;20120;-73
2023/09/04 02:10:01;;;;;;;0.30;0.30;;;;;;;;;;1028954;28;20034;-74
2023/09/04 02:10:35;;;;;;;0.00;0.00;;;;;;;;;;1030245;28;20080;-73
2023/09/04 02:11:06;;;;;;;0.00;0.00;;;;;;;;;;1033676;28;20030;-74
2023/09/04 02:11:36;;;;;;;3.28;1.17;;;;;;;;;;1033759;28;20105;-74
2023/09/04 02:12:07;;;;;;;0.50;0.50;;;;;;;;;;1038038;28;20029;-73
2023/09/04 02:12:37;;;;;;;0.00;0.00;;;;;;;;;;1033363;28;20026;-73
2023/09/04 02:13:07;;;;;;;0.17;0.17;;;;;;;;;;1033691;28;20538;-74
2023/09/04 02:13:38;;;;;;;0.40;0.40;;;;;;;;;;1032698;28;20474;-74
2023/09/04 02:14:08;;;;;;;0.08;0.08;;;;;;;;;;1033400;28;20430;-74
2023/09/04 02:14:39;;;;;;;1.65;1.13;;;;;;;;;;1037414;28;20342;-73
2023/09/04 02:15:09;;;;;;;3.05;1.10;;;;;;;;;;1037905;28;20045;-73
2023/09/04 02:15:40;;;;;;;1.60;0.57;;;;;;;;;;1038528;28;20023;-73
2023/09/04 02:16:10;;;;;;;0.20;0.20;;;;;;;;;;1033295;28;20426;-74
2023/09/04 02:16:40;;;;;;;0.10;0.00;;;;;;;;;;1035015;28;20534;-74
2023/09/04 02:17:12;;;;;;;2.17;0.38;;;;;;;;;;1033311;28;20134;-74
2023/09/04 02:17:42;;;;;;;0.47;0.13;;;;;;;;;;1034269;28;20068;-74
2023/09/04 02:18:13;;;;;;;0.10;0.10;;;;;;;;;;1033096;28;20155;-74
2023/09/04 02:18:44;;;;;;;0.30;0.30;;;;;;;;;;1033529;28;20033;-73
2023/09/04 02:19:14;;;;;;;0.73;0.47;;;;;;;;;;1031756;28;20047;-74
2023/09/04 02:19:45;;;;;;;0.00;0.00;;;;;;;;;;1032843;28;20068;-74
2023/09/04 02:20:19;;;;;;;1.38;1.25;;;;;;;;;;1033851;28;20141;-75
2023/09/04 02:20:49;;;;;;;1.58;0.95;;;;;;;;;;1034090;28;20080;-76
2023/09/04 02:21:20;;;;;;;0.00;0.00;;;;;;;;;;1034753;28;20022;-73
2023/09/04 02:21:50;;;;;;;0.25;0.25;;;;;;;;;;1034318;28;20028;-74
2023/09/04 02:22:21;;;;;;;0.15;0.15;;;;;;;;;;1037652;28;20658;-73
2023/09/04 02:22:51;;;;;;;1.50;1.40;;;;;;;;;;1041408;28;20032;-73
2023/09/04 02:23:22;;;;;;;0.55;0.55;;;;;;;;;;1036779;28;20033;-74
2023/09/04 02:23:52;;;;;;;0.88;0.80;;;;;;;;;;1039446;28;20036;-74
2023/09/04 02:24:23;;;;;;;0.00;0.00;;;;;;;;;;1030308;28;20584;-74
2023/09/04 02:24:53;;;;;;;0.55;0.47;;;;;;;;;;1033563;28;20022;-73
2023/09/04 02:25:24;;;;;;;0.08;0.08;;;;;;;;;;1032068;28;20406;-74
2023/09/04 02:25:54;;;;;;;0.20;0.20;;;;;;;;;;1035883;28;20079;-74
2023/09/04 02:26:25;;;;;;;16.45;1.98;;;;;;;;;;1037109;28;20065;-74
2023/09/04 02:26:55;;;;;;;0.22;0.22;;;;;;;;;;1034092;28;20048;-74
2023/09/04 02:27:26;;;;;;;0.28;0.10;;;;;;;;;;1035946;28;20378;-73
2023/09/04 02:27:56;;;;;;;2.17;1.98;;;;;;;;;;1033689;28;20026;-74
2023/09/04 02:28:27;;;;;;;0.00;0.00;;;;;;;;;;1032705;28;20026;-74
2023/09/04 02:28:57;;;;;;;1.65;0.43;;;;;;;;;;1029713;28;20405;-74
2023/09/04 02:29:29;;;;;;;1.75;1.27;;;;;;;;;;1028981;28;20161;-75
2023/09/04 02:30:02;;;;;;;0.15;0.15;;;;;;;;;;1030365;28;20512;-73
2023/09/04 02:30:36;;;;;;;3.97;1.08;;;;;;;;;;1030403;28;20386;-73
2023/09/04 02:31:07;;;;;;;0.05;0.05;;;;;;;;;;1034447;28;20650;-73
2023/09/04 02:31:38;;;;;;;0.10;0.10;;;;;;;;;;1033963;28;20052;-74
2023/09/04 02:32:08;;;;;;;0.20;0.20;;;;;;;;;;1034553;28;20033;-73
2023/09/04 02:32:39;;;;;;;0.15;0.15;;;;;;;;;;1035254;28;20481;-74
2023/09/04 02:33:10;;;;;;;0.28;0.28;;;;;;;;;;1031237;28;20033;-74
2023/09/04 02:33:41;;;;;;;0.43;0.40;;;;;;;;;;1031071;28;20065;-74
2023/09/04 02:34:12;;;;;;;0.20;0.20;;;;;;;;;;1031529;28;20559;-74
2023/09/04 02:34:43;;;;;;;0.70;0.70;;;;;;;;;;1030358;28;20040;-74
2023/09/04 02:35:13;;;;;;;0.43;0.43;;;;;;;;;;1030960;28;20022;-73
2023/09/04 02:35:44;;;;;;;0.30;0.30;;;;;;;;;;1029624;28;20026;-74
2023/09/04 02:36:14;;;;;;;6.72;1.35;;;;;;;;;;1035439;28;20029;-73
2023/09/04 02:36:44;;;;;;;0.10;0.10;;;;;;;;;;1036278;28;20036;-74
2023/09/04 02:37:15;;;;;;;0.50;0.43;;;;;;;;;;1033720;28;20050;-74
2023/09/04 02:37:46;;;;;;;0.82;0.82;;;;;;;;;;1033070;28;20033;-73
2023/09/04 02:38:18;;;;;;;0.22;0.20;;;;;;;;;;1033007;28;20401;-74
2023/09/04 02:38:48;;;;;;;0.43;0.43;;;;;;;;;;1034444;28;20065;-73
2023/09/04 02:39:19;;;;;;;1.40;0.95;;;;;;;;;;1030050;28;20069;-74
2023/09/04 02:39:49;;;;;;;6.78;1.08;;;;;;;;;;1031593;28;20360;-73
2023/09/04 02:40:20;;;;;;;3.13;0.68;;;;;;;;;;1034300;28;20504;-73
2023/09/04 02:40:50;;;;;;;0.20;0.20;;;;;;;;;;1036145;28;20033;-74
2023/09/04 02:41:21;;;;;;;1.67;1.00;;;;;;;;;;1034503;28;20026;-73
2023/09/04 02:41:51;;;;;;;0.00;0.00;;;;;;;;;;1030750;28;20026;-74
2023/09/04 02:42:22;;;;;;;0.85;0.38;;;;;;;;;;1031820;28;20457;-75
2023/09/04 02:42:52;;;;;;;0.45;0.45;;;;;;;;;;1031846;28;20033;-74
2023/09/04 02:43:23;;;;;;;13.35;0.80;;;;;;;;;;1032802;28;20531;-74
2023/09/04 02:43:53;;;;;;;0.00;0.00;;;;;;;;;;1036533;28;20030;-73
2023/09/04 02:44:24;;;;;;;0.20;0.20;;;;;;;;;;1030540;28;20150;-74
2023/09/04 02:44:55;;;;;;;1.98;0.95;;;;;;;;;;1032212;28;20055;-74
2023/09/04 02:45:25;;;;;;;0.80;0.30;;;;;;;;;;1034449;28;20162;-75
2023/09/04 02:45:57;;;;;;;0.00;0.00;;;;;;;;;;1033853;28;20092;-74
2023/09/04 02:46:32;;;;;;;0.80;0.80;;;;;;;;;;1032747;28;20064;-74
2023/09/04 02:47:02;;;;;;;0.77;0.32;;;;;;;;;;1037256;28;20557;-73
2023/09/04 02:47:34;;;;;;;0.10;0.10;;;;;;;;;;1037373;28;20025;-73
2023/09/04 02:48:04;;;;;;;0.30;0.30;;;;;;;;;;1031915;28;20030;-73
2023/09/04 02:48:35;;;;;;;0.57;0.50;;;;;;;;;;1029213;28;20026;-73
2023/09/04 02:49:05;;;;;;;2.55;1.17;;;;;;;;;;1028309;28;20496;-74
2023/09/04 02:49:36;;;;;;;0.35;0.35;;;;;;;;;;1026242;28;20069;-74
2023/09/04 02:50:07;;;;;;;0.28;0.28;;;;;;;;;;1029731;28;20454;-73
2023/09/04 02:50:37;;;;;;;0.63;0.15;;;;;;;;;;1032420;28;20406;-74
2023/09/04 02:51:08;;;;;;;0.50;0.50;;;;;;;;;;1027632;28;20427;-74
2023/09/04 02:51:38;;;;;;;1.00;1.00;;;;;;;;;;1031575;28;20034;-73
2023/09/04 02:52:09;;;;;;;1.65;1.55;;;;;;;;;;1032963;28;20053;-74
2023/09/04 02:52:41;;;;;;;0.60;0.60;;;;;;;;;;1033656;28;20524;-73
2023/09/04 02:53:11;;;;;;;2.70;1.98;;;;;;;;;;1032232;28;20121;-74
2023/09/04 02:53:42;;;;;;;0.65;0.65;;;;;;;;;;1033133;28;20034;-74
2023/09/04 02:54:12;;;;;;;0.15;0.15;;;;;;;;;;1035670;28;20033;-74
2023/09/04 02:54:44;;;;;;;0.30;0.28;;;;;;;;;;1036336;28;20095;-75
2023/09/04 02:55:15;;;;;;;0.60;0.20;;;;;;;;;;1037650;28;20021;-74
2023/09/04 02:55:52;;;;;;;0.60;0.60;;;;;;;;;;1040620;28;20380;-74
2023/09/04 02:56:22;;;;;;;2.03;0.85;;;;;;;;;;1040798;28;20386;-74
2023/09/04 02:56:52;;;;;;;2.00;0.47;;;;;;;;;;1039356;28;20124;-75
2023/09/04 02:57:23;;;;;;;0.68;0.50;;;;;;;;;;1035697;28;20564;-75
2023/09/04 02:57:54;;;;;;;1.65;0.68;;;;;;;;;;1037269;28;20033;-74
2023/09/04 02:58:24;;;;;;;0.25;0.22;;;;;;;;;;1028943;28;20023;-74
2023/09/04 02:58:55;;;;;;;2.22;0.75;;;;;;;;;;1024979;28;20033;-74
2023/09/04 02:59:25;;;;;;;0.10;0.10;;;;;;;;;;1025858;28;20209;-74
2023/09/04 02:59:56;;;;;;;0.00;0.00;;;;;;;;;;1027152;28;20450;-73
2023/09/04 03:00:26;;;;;;;0.20;0.20;;;;;;;;;;1031316;28;20348;-74
2023/09/04 03:00:57;;;;;;;1.75;1.65;;;;;;;;;;1033242;28;20727;-74
2023/09/04 03:01:27;;;;;;;2.65;1.02;;;;;;;;;;1033850;28;20074;-73
2023/09/04 03:01:57;;;;;;;0.40;0.40;;;;;;;;;;1033024;28;20061;-73
2023/09/04 03:02:28;;;;;;;5.05;1.30;;;;;;;;;;1033813;28;20026;-74
2023/09/04 03:02:58;;;;;;;0.30;0.30;;;;;;;;;;1032897;28;20021;-74
2023/09/04 03:03:29;;;;;;;11.10;0.40;;;;;;;;;;1032704;28;20030;-74
2023/09/04 03:03:59;;;;;;;0.10;0.10;;;;;;;;;;1032256;28;20029;-75
2023/09/04 03:04:31;;;;;;;0.63;0.63;;;;;;;;;;1032060;28;20805;-75
2023/09/04 03:05:01;;;;;;;1.10;1.10;;;;;;;;;;1033608;28;20025;-74
2023/09/04 03:05:33;;;;;;;2.58;1.67;;;;;;;;;;1037178;28;20899;-74
2023/09/04 03:06:07;;;;;;;1.35;0.75;;;;;;;;;;1031605;28;20493;-74
2023/09/04 03:06:39;;;;;;;0.17;0.17;;;;;;;;;;1028025;28;20124;-75